Statia Reliant — V7UC9 — position and weather

sailwx.info

Track history (hours):
 
Tides and Currents Weather Stations Pressure Air Temp Water Temp Dewpoint Dewpoint Depression Visibility Wind Speed Wind Dir Waves Ship Positions

Statia Reliant

Last reported at 2017-Sep-11 05:06 UTC. Time now 2017-Sep-20 18:23 UTC.
Position N 16°47' W 062°27'.
Warning: this ship's position is 9 days out of date.

Length 27 m; draft 4.1 m.

Type: Tug. MMSI: 538003903.

Date/timePositionNaut miles runAvg speedWind from/ knotsBaromVisibWave heightAir tempDewpointWater temp
2017-Sep-11 05:06N 16°47' W 062°27'0 4.0
2017-Sep-11 04:59N 16°47' W 062°27'2 4.1
2017-Sep-11 04:30N 16°45' W 062°25'2 4.6
2017-Sep-11 04:00N 16°44' W 062°24'2 4.7
2017-Sep-11 03:30N 16°42' W 062°22'2 4.7
2017-Sep-11 03:01N 16°40' W 062°21'2 4.8
2017-Sep-11 02:30N 16°38' W 062°19'2 4.7
2017-Sep-11 02:01N 16°36' W 062°17'2 4.7
2017-Sep-11 01:31N 16°35' W 062°16'2 4.4
2017-Sep-11 01:01N 16°33' W 062°14'2 4.5
2017-Sep-11 00:31N 16°31' W 062°13'2 4.4
2017-Sep-11 00:01N 16°29' W 062°12'2 4.3
2017-Sep-10 23:30N 16°27' W 062°10'2 4.1
2017-Sep-10 23:01N 16°26' W 062°09'2 4.2
2017-Sep-10 22:30N 16°24' W 062°08'2 4.2
2017-Sep-10 22:00N 16°23' W 062°06'39 4.6
2017-Sep-10 13:28N 15°48' W 061°47'2 4.3
2017-Sep-10 12:57N 15°46' W 061°46'6 4.4
2017-Sep-10 11:36N 15°41' W 061°43'0 4.2
2017-Sep-10 11:30N 15°41' W 061°43'2 4.5
2017-Sep-10 10:58N 15°39' W 061°41'3 4.6
2017-Sep-10 10:23N 15°36' W 061°40'76 3.1
2017-Sep-09 09:45N 14°27' W 061°09'  
2017-Sep-06 14:48N 14°27' W 061°08'1 3.8
2017-Sep-06 14:26N 14°26' W 061°07'1 3.5
2017-Sep-06 14:01N 14°25' W 061°06'2 3.7
2017-Sep-06 13:31N 14°24' W 061°05'1 2.8
2017-Sep-06 13:00N 14°23' W 061°04'1 2.0
2017-Sep-06 12:31N 14°22' W 061°03'1 2.1
2017-Sep-06 12:01N 14°22' W 061°02'1 2.1
2017-Sep-06 11:31N 14°21' W 061°01'1 2.1
2017-Sep-06 11:01N 14°21' W 060°60'1 2.0
2017-Sep-06 10:31N 14°21' W 060°59'1 1.9
2017-Sep-06 10:00N 14°20' W 060°58'1 2.0
2017-Sep-06 09:31N 14°20' W 060°57'1 2.0
2017-Sep-06 09:01N 14°20' W 060°56'1 2.0
2017-Sep-06 08:30N 14°20' W 060°55'1 1.4
2017-Sep-06 08:00N 14°20' W 060°55'1 2.3
2017-Sep-06 07:31N 14°21' W 060°57'1 2.7
2017-Sep-06 07:01N 14°21' W 060°58'2 3.2
2017-Sep-06 06:31N 14°21' W 060°60'2 3.1
2017-Sep-06 06:00N 14°22' W 061°01'1 1.4
2017-Sep-06 05:31N 14°23' W 061°00'1 1.5
2017-Sep-06 05:00N 14°22' W 060°59'1 1.4
2017-Sep-06 04:31N 14°22' W 060°59'1 1.4
2017-Sep-06 04:01N 14°22' W 060°58'1 1.4
2017-Sep-06 03:31N 14°21' W 060°57'1 1.1
2017-Sep-06 03:01N 14°22' W 060°57'2 3.1
2017-Sep-06 02:30N 14°22' W 060°58'2 3.2
2017-Sep-06 02:00N 14°23' W 060°60'2 3.2
2017-Sep-06 01:31N 14°24' W 061°01'2 3.3
2017-Sep-06 01:00N 14°24' W 061°03'2 4.0
2017-Sep-06 00:31N 14°25' W 061°05'2 3.6
2017-Sep-06 00:00N 14°26' W 061°07'2 3.4
2017-Sep-05 23:30N 14°27' W 061°07'127 4.9
2017-Sep-04 21:25N 16°19' W 062°11'3 5.2
2017-Sep-04 20:55N 16°21' W 062°12'2 5.3
2017-Sep-04 20:30N 16°23' W 062°13'2 5.1
2017-Sep-04 20:00N 16°25' W 062°14'3 5.0
2017-Sep-04 19:30N 16°28' W 062°16'2 4.9
2017-Sep-04 19:01N 16°30' W 062°17'2 4.7
2017-Sep-04 18:31N 16°31' W 062°19'2 4.9
2017-Sep-04 18:00N 16°33' W 062°21'2 5.0
2017-Sep-04 17:30N 16°35' W 062°22'3 5.1
2017-Sep-04 17:00N 16°37' W 062°24'3 5.1
2017-Sep-04 16:31N 16°39' W 062°26'3 5.2
2017-Sep-04 16:00N 16°41' W 062°28'3 5.0
2017-Sep-04 15:30N 16°42' W 062°29'3 5.3
2017-Sep-04 15:00N 16°45' W 062°31'74 4.4
2017-Sep-03 22:12N 17°51' W 063°05'1 4.2
2017-Sep-03 21:59N 17°52' W 063°05'2 4.3
2017-Sep-03 21:29N 17°54' W 063°06'2 4.3
2017-Sep-03 20:58N 17°56' W 063°06'2 4.5
2017-Sep-03 20:28N 17°58' W 063°06'2 3.9
2017-Sep-03 19:59N 17°60' W 063°05'1 2.2
2017-Sep-03 19:30N 18°01' W 063°05'0 0.4
2017-Sep-03 18:57N 18°01' W 063°05'0 0.1
2017-Sep-03 18:26N 18°01' W 063°05'0 0.0
2017-Sep-03 18:01N 18°01' W 063°05'0 0.0
2017-Sep-03 17:27N 18°01' W 063°05'0 0.0
2017-Sep-03 16:59N 18°01' W 063°05'0 0.0
2017-Sep-03 16:30N 18°01' W 063°05'0 0.0
2017-Sep-03 15:59N 18°01' W 063°05'0 0.0
2017-Sep-03 15:30N 18°01' W 063°05'0 0.0
2017-Sep-03 15:00N 18°01' W 063°05'0 0.0
2017-Sep-03 14:00N 18°01' W 063°05'0 0.0
2017-Sep-03 13:28N 18°01' W 063°05'0 0.0
2017-Sep-03 12:59N 18°01' W 063°05'0 0.0
2017-Sep-03 12:30N 18°01' W 063°05'0 0.0
2017-Sep-03 11:59N 18°01' W 063°05'0 0.0
2017-Sep-03 11:29N 18°01' W 063°05'0 0.0
2017-Sep-03 10:59N 18°01' W 063°05'0 0.4
2017-Sep-03 10:29N 18°01' W 063°05'0 0.5
2017-Sep-03 09:55N 18°01' W 063°05'1 1.5
2017-Sep-03 09:27N 18°00' W 063°05'1 2.3
2017-Sep-03 08:59N 17°59' W 063°05'2 4.1
2017-Sep-03 08:28N 17°57' W 063°05'2 4.7
2017-Sep-03 07:59N 17°55' W 063°05'2 4.7
2017-Sep-03 07:27N 17°52' W 063°05'2 4.7
2017-Sep-03 06:58N 17°50' W 063°04'3 4.7
2017-Sep-03 06:26N 17°47' W 063°04'  
Track history (hours):
 
Tides and Currents Weather Stations Pressure Air Temp Water Temp Dewpoint Dewpoint Depression Visibility Wind Speed Wind Dir Waves Ship Positions

Statia Reliant

Last reported at 2017-Sep-11 05:06 UTC. Time now 2017-Sep-20 18:23 UTC.
Position N 16°47' W 062°27'.
Warning: this ship's position is 9 days out of date.

Length 27 m; draft 4.1 m.

Type: Tug. MMSI: 538003903.

Date/timePositionNaut miles runAvg speedWind from/ knotsBaromVisibWave heightAir tempDewpointWater temp
2017-Sep-11 05:06N 16°47' W 062°27'0 4.0
2017-Sep-11 04:59N 16°47' W 062°27'2 4.1
2017-Sep-11 04:30N 16°45' W 062°25'2 4.6
2017-Sep-11 04:00N 16°44' W 062°24'2 4.7
2017-Sep-11 03:30N 16°42' W 062°22'2 4.7
2017-Sep-11 03:01N 16°40' W 062°21'2 4.8
2017-Sep-11 02:30N 16°38' W 062°19'2 4.7
2017-Sep-11 02:01N 16°36' W 062°17'2 4.7
2017-Sep-11 01:31N 16°35' W 062°16'2 4.4
2017-Sep-11 01:01N 16°33' W 062°14'2 4.5
2017-Sep-11 00:31N 16°31' W 062°13'2 4.4
2017-Sep-11 00:01N 16°29' W 062°12'2 4.3
2017-Sep-10 23:30N 16°27' W 062°10'2 4.1
2017-Sep-10 23:01N 16°26' W 062°09'2 4.2
2017-Sep-10 22:30N 16°24' W 062°08'2 4.2
2017-Sep-10 22:00N 16°23' W 062°06'39 4.6
2017-Sep-10 13:28N 15°48' W 061°47'2 4.3
2017-Sep-10 12:57N 15°46' W 061°46'6 4.4
2017-Sep-10 11:36N 15°41' W 061°43'0 4.2
2017-Sep-10 11:30N 15°41' W 061°43'2 4.5
2017-Sep-10 10:58N 15°39' W 061°41'3 4.6
2017-Sep-10 10:23N 15°36' W 061°40'76 3.1
2017-Sep-09 09:45N 14°27' W 061°09'  
2017-Sep-06 14:48N 14°27' W 061°08'1 3.8
2017-Sep-06 14:26N 14°26' W 061°07'1 3.5
2017-Sep-06 14:01N 14°25' W 061°06'2 3.7
2017-Sep-06 13:31N 14°24' W 061°05'1 2.8
2017-Sep-06 13:00N 14°23' W 061°04'1 2.0
2017-Sep-06 12:31N 14°22' W 061°03'1 2.1
2017-Sep-06 12:01N 14°22' W 061°02'1 2.1
2017-Sep-06 11:31N 14°21' W 061°01'1 2.1
2017-Sep-06 11:01N 14°21' W 060°60'1 2.0
2017-Sep-06 10:31N 14°21' W 060°59'1 1.9
2017-Sep-06 10:00N 14°20' W 060°58'1 2.0
2017-Sep-06 09:31N 14°20' W 060°57'1 2.0
2017-Sep-06 09:01N 14°20' W 060°56'1 2.0
2017-Sep-06 08:30N 14°20' W 060°55'1 1.4
2017-Sep-06 08:00N 14°20' W 060°55'1 2.3
2017-Sep-06 07:31N 14°21' W 060°57'1 2.7
2017-Sep-06 07:01N 14°21' W 060°58'2 3.2
2017-Sep-06 06:31N 14°21' W 060°60'2 3.1
2017-Sep-06 06:00N 14°22' W 061°01'1 1.4
2017-Sep-06 05:31N 14°23' W 061°00'1 1.5
2017-Sep-06 05:00N 14°22' W 060°59'1 1.4
2017-Sep-06 04:31N 14°22' W 060°59'1 1.4
2017-Sep-06 04:01N 14°22' W 060°58'1 1.4
2017-Sep-06 03:31N 14°21' W 060°57'1 1.1
2017-Sep-06 03:01N 14°22' W 060°57'2 3.1
2017-Sep-06 02:30N 14°22' W 060°58'2 3.2
2017-Sep-06 02:00N 14°23' W 060°60'2 3.2
2017-Sep-06 01:31N 14°24' W 061°01'2 3.3
2017-Sep-06 01:00N 14°24' W 061°03'2 4.0
2017-Sep-06 00:31N 14°25' W 061°05'2 3.6
2017-Sep-06 00:00N 14°26' W 061°07'2 3.4
2017-Sep-05 23:30N 14°27' W 061°07'127 4.9
2017-Sep-04 21:25N 16°19' W 062°11'3 5.2
2017-Sep-04 20:55N 16°21' W 062°12'2 5.3
2017-Sep-04 20:30N 16°23' W 062°13'2 5.1
2017-Sep-04 20:00N 16°25' W 062°14'3 5.0
2017-Sep-04 19:30N 16°28' W 062°16'2 4.9
2017-Sep-04 19:01N 16°30' W 062°17'2 4.7
2017-Sep-04 18:31N 16°31' W 062°19'2 4.9
2017-Sep-04 18:00N 16°33' W 062°21'2 5.0
2017-Sep-04 17:30N 16°35' W 062°22'3 5.1
2017-Sep-04 17:00N 16°37' W 062°24'3 5.1
2017-Sep-04 16:31N 16°39' W 062°26'3 5.2
2017-Sep-04 16:00N 16°41' W 062°28'3 5.0
2017-Sep-04 15:30N 16°42' W 062°29'3 5.3
2017-Sep-04 15:00N 16°45' W 062°31'74 4.4
2017-Sep-03 22:12N 17°51' W 063°05'1 4.2
2017-Sep-03 21:59N 17°52' W 063°05'2 4.3
2017-Sep-03 21:29N 17°54' W 063°06'2 4.3
2017-Sep-03 20:58N 17°56' W 063°06'2 4.5
2017-Sep-03 20:28N 17°58' W 063°06'2 3.9
2017-Sep-03 19:59N 17°60' W 063°05'1 2.2
2017-Sep-03 19:30N 18°01' W 063°05'0 0.4
2017-Sep-03 18:57N 18°01' W 063°05'0 0.1
2017-Sep-03 18:26N 18°01' W 063°05'0 0.0
2017-Sep-03 18:01N 18°01' W 063°05'0 0.0
2017-Sep-03 17:27N 18°01' W 063°05'0 0.0
2017-Sep-03 16:59N 18°01' W 063°05'0 0.0
2017-Sep-03 16:30N 18°01' W 063°05'0 0.0
2017-Sep-03 15:59N 18°01' W 063°05'0 0.0
2017-Sep-03 15:30N 18°01' W 063°05'0 0.0
2017-Sep-03 15:00N 18°01' W 063°05'0 0.0
2017-Sep-03 14:00N 18°01' W 063°05'0 0.0
2017-Sep-03 13:28N 18°01' W 063°05'0 0.0
2017-Sep-03 12:59N 18°01' W 063°05'0 0.0
2017-Sep-03 12:30N 18°01' W 063°05'0 0.0
2017-Sep-03 11:59N 18°01' W 063°05'0 0.0
2017-Sep-03 11:29N 18°01' W 063°05'0 0.0
2017-Sep-03 10:59N 18°01' W 063°05'0 0.4
2017-Sep-03 10:29N 18°01' W 063°05'0 0.5
2017-Sep-03 09:55N 18°01' W 063°05'1 1.5
2017-Sep-03 09:27N 18°00' W 063°05'1 2.3
2017-Sep-03 08:59N 17°59' W 063°05'2 4.1
2017-Sep-03 08:28N 17°57' W 063°05'2 4.7
2017-Sep-03 07:59N 17°55' W 063°05'2 4.7
2017-Sep-03 07:27N 17°52' W 063°05'2 4.7
2017-Sep-03 06:58N 17°50' W 063°04'3 4.7
2017-Sep-03 06:26N 17°47' W 063°04'  

Dump ship's entire track history